sensor_id;sensor_type;location;lat;lon;timestamp;P1;durP1;ratioP1;P2;durP2;ratioP2
78443;SDS011;67739;52.986;8.894;2023-06-26T00:01:17;5.53;;;2.15;;
78443;SDS011;67739;52.986;8.894;2023-06-26T00:03:43;5.55;;;2.03;;
78443;SDS011;67739;52.986;8.894;2023-06-26T00:06:08;5.22;;;1.92;;
78443;SDS011;67739;52.986;8.894;2023-06-26T00:08:34;5.90;;;2.13;;
78443;SDS011;67739;52.986;8.894;2023-06-26T00:10:59;5.43;;;2.53;;
78443;SDS011;67739;52.986;8.894;2023-06-26T00:13:24;6.03;;;2.50;;
78443;SDS011;67739;52.986;8.894;2023-06-26T00:15:50;5.78;;;2.00;;
78443;SDS011;67739;52.986;8.894;2023-06-26T00:18:15;6.75;;;2.28;;
78443;SDS011;67739;52.986;8.894;2023-06-26T00:20:41;4.53;;;1.80;;
78443;SDS011;67739;52.986;8.894;2023-06-26T00:23:06;5.85;;;2.53;;
78443;SDS011;67739;52.986;8.894;2023-06-26T00:25:35;6.93;;;2.80;;
78443;SDS011;67739;52.986;8.894;2023-06-26T00:28:00;5.47;;;2.45;;
78443;SDS011;67739;52.986;8.894;2023-06-26T00:30:26;7.35;;;2.22;;
78443;SDS011;67739;52.986;8.894;2023-06-26T00:32:51;6.38;;;2.42;;
78443;SDS011;67739;52.986;8.894;2023-06-26T00:35:17;5.65;;;2.00;;
78443;SDS011;67739;52.986;8.894;2023-06-26T00:37:42;5.50;;;2.30;;
78443;SDS011;67739;52.986;8.894;2023-06-26T00:40:08;6.43;;;2.22;;
78443;SDS011;67739;52.986;8.894;2023-06-26T00:42:34;4.15;;;1.58;;
78443;SDS011;67739;52.986;8.894;2023-06-26T00:44:59;4.63;;;2.00;;
78443;SDS011;67739;52.986;8.894;2023-06-26T00:47:25;6.22;;;2.88;;
78443;SDS011;67739;52.986;8.894;2023-06-26T00:49:52;5.68;;;2.30;;
78443;SDS011;67739;52.986;8.894;2023-06-26T00:52:18;5.97;;;2.33;;
78443;SDS011;67739;52.986;8.894;2023-06-26T00:54:43;7.05;;;3.28;;
78443;SDS011;67739;52.986;8.894;2023-06-26T00:57:09;6.75;;;2.08;;
78443;SDS011;67739;52.986;8.894;2023-06-26T00:59:34;5.70;;;2.05;;
78443;SDS011;67739;52.986;8.894;2023-06-26T01:02:00;6.53;;;2.78;;
78443;SDS011;67739;52.986;8.894;2023-06-26T01:04:26;7.88;;;2.58;;
78443;SDS011;67739;52.986;8.894;2023-06-26T01:06:52;5.45;;;1.88;;
78443;SDS011;67739;52.986;8.894;2023-06-26T01:09:19;6.10;;;2.53;;
78443;SDS011;67739;52.986;8.894;2023-06-26T01:11:45;5.57;;;2.10;;
78443;SDS011;67739;52.986;8.894;2023-06-26T01:14:11;6.05;;;2.40;;
78443;SDS011;67739;52.986;8.894;2023-06-26T01:16:37;6.68;;;2.58;;
78443;SDS011;67739;52.986;8.894;2023-06-26T01:19:06;5.63;;;2.55;;
78443;SDS011;67739;52.986;8.894;2023-06-26T01:21:39;5.47;;;2.25;;
78443;SDS011;67739;52.986;8.894;2023-06-26T01:24:17;6.38;;;2.13;;
78443;SDS011;67739;52.986;8.894;2023-06-26T01:26:47;5.30;;;1.83;;
78443;SDS011;67739;52.986;8.894;2023-06-26T01:29:15;5.90;;;2.67;;
78443;SDS011;67739;52.986;8.894;2023-06-26T01:31:43;5.43;;;2.22;;
78443;SDS011;67739;52.986;8.894;2023-06-26T01:34:11;6.75;;;2.47;;
78443;SDS011;67739;52.986;8.894;2023-06-26T01:36:37;5.30;;;1.88;;
78443;SDS011;67739;52.986;8.894;2023-06-26T01:39:03;6.72;;;2.45;;
78443;SDS011;67739;52.986;8.894;2023-06-26T01:41:28;7.22;;;2.63;;
78443;SDS011;67739;52.986;8.894;2023-06-26T01:46:40;5.95;;;2.33;;
78443;SDS011;67739;52.986;8.894;2023-06-26T01:49:31;6.13;;;2.50;;
78443;SDS011;67739;52.986;8.894;2023-06-26T01:52:09;5.07;;;2.05;;
78443;SDS011;67739;52.986;8.894;2023-06-26T01:55:03;7.20;;;2.80;;
78443;SDS011;67739;52.986;8.894;2023-06-26T01:57:33;5.53;;;1.92;;
78443;SDS011;67739;52.986;8.894;2023-06-26T02:00:01;7.97;;;3.70;;
78443;SDS011;67739;52.986;8.894;2023-06-26T02:02:31;5.10;;;2.05;;
78443;SDS011;67739;52.986;8.894;2023-06-26T02:04:56;7.28;;;2.22;;
78443;SDS011;67739;52.986;8.894;2023-06-26T02:07:21;5.68;;;2.53;;
78443;SDS011;67739;52.986;8.894;2023-06-26T02:09:47;6.18;;;3.25;;
78443;SDS011;67739;52.986;8.894;2023-06-26T02:12:12;5.30;;;2.28;;
78443;SDS011;67739;52.986;8.894;2023-06-26T02:14:38;5.25;;;2.17;;
78443;SDS011;67739;52.986;8.894;2023-06-26T02:17:03;7.20;;;3.08;;
78443;SDS011;67739;52.986;8.894;2023-06-26T02:19:29;5.35;;;2.25;;
78443;SDS011;67739;52.986;8.894;2023-06-26T02:21:54;5.50;;;2.10;;
78443;SDS011;67739;52.986;8.894;2023-06-26T02:24:20;6.03;;;2.47;;
78443;SDS011;67739;52.986;8.894;2023-06-26T02:26:45;6.32;;;2.83;;
78443;SDS011;67739;52.986;8.894;2023-06-26T02:29:11;6.22;;;2.20;;
78443;SDS011;67739;52.986;8.894;2023-06-26T02:31:37;6.90;;;2.88;;
78443;SDS011;67739;52.986;8.894;2023-06-26T02:34:02;6.55;;;2.78;;
78443;SDS011;67739;52.986;8.894;2023-06-26T02:36:28;7.50;;;3.03;;
78443;SDS011;67739;52.986;8.894;2023-06-26T02:38:53;5.88;;;2.30;;
78443;SDS011;67739;52.986;8.894;2023-06-26T02:41:18;7.63;;;3.42;;
78443;SDS011;67739;52.986;8.894;2023-06-26T02:43:44;4.85;;;2.00;;
78443;SDS011;67739;52.986;8.894;2023-06-26T02:46:09;5.75;;;2.45;;
78443;SDS011;67739;52.986;8.894;2023-06-26T02:48:34;5.95;;;2.42;;
78443;SDS011;67739;52.986;8.894;2023-06-26T02:51:00;7.75;;;2.45;;
78443;SDS011;67739;52.986;8.894;2023-06-26T02:53:25;6.68;;;3.08;;
78443;SDS011;67739;52.986;8.894;2023-06-26T02:55:50;5.82;;;2.08;;
78443;SDS011;67739;52.986;8.894;2023-06-26T02:58:16;5.63;;;2.17;;
78443;SDS011;67739;52.986;8.894;2023-06-26T03:00:41;5.82;;;2.22;;
78443;SDS011;67739;52.986;8.894;2023-06-26T03:03:07;4.70;;;1.88;;
78443;SDS011;67739;52.986;8.894;2023-06-26T03:05:33;6.07;;;2.88;;
78443;SDS011;67739;52.986;8.894;2023-06-26T03:07:58;7.50;;;3.40;;
78443;SDS011;67739;52.986;8.894;2023-06-26T03:10:23;8.13;;;3.35;;
78443;SDS011;67739;52.986;8.894;2023-06-26T03:12:49;7.90;;;3.80;;
78443;SDS011;67739;52.986;8.894;2023-06-26T03:15:14;5.30;;;2.53;;
78443;SDS011;67739;52.986;8.894;2023-06-26T03:17:39;6.97;;;2.60;;
78443;SDS011;67739;52.986;8.894;2023-06-26T03:20:05;8.93;;;2.72;;
78443;SDS011;67739;52.986;8.894;2023-06-26T03:22:32;7.20;;;2.95;;
78443;SDS011;67739;52.986;8.894;2023-06-26T03:24:58;7.13;;;3.05;;
78443;SDS011;67739;52.986;8.894;2023-06-26T03:27:23;6.88;;;2.63;;
78443;SDS011;67739;52.986;8.894;2023-06-26T03:29:48;5.50;;;2.40;;
78443;SDS011;67739;52.986;8.894;2023-06-26T03:32:13;6.78;;;2.33;;
78443;SDS011;67739;52.986;8.894;2023-06-26T03:34:39;6.75;;;2.42;;
78443;SDS011;67739;52.986;8.894;2023-06-26T03:37:04;6.55;;;2.67;;
78443;SDS011;67739;52.986;8.894;2023-06-26T03:39:30;6.72;;;3.00;;
78443;SDS011;67739;52.986;8.894;2023-06-26T03:41:55;8.23;;;2.67;;
78443;SDS011;67739;52.986;8.894;2023-06-26T03:44:25;5.72;;;2.60;;
78443;SDS011;67739;52.986;8.894;2023-06-26T03:46:50;6.00;;;2.65;;
78443;SDS011;67739;52.986;8.894;2023-06-26T03:49:16;6.72;;;2.97;;
78443;SDS011;67739;52.986;8.894;2023-06-26T03:51:41;5.75;;;2.45;;
78443;SDS011;67739;52.986;8.894;2023-06-26T03:54:06;4.47;;;2.10;;
78443;SDS011;67739;52.986;8.894;2023-06-26T03:56:32;6.80;;;2.60;;
78443;SDS011;67739;52.986;8.894;2023-06-26T03:58:57;9.10;;;2.78;;
78443;SDS011;67739;52.986;8.894;2023-06-26T04:01:22;6.40;;;2.65;;
78443;SDS011;67739;52.986;8.894;2023-06-26T04:03:48;6.03;;;2.50;;
78443;SDS011;67739;52.986;8.894;2023-06-26T04:06:13;4.80;;;1.90;;
78443;SDS011;67739;52.986;8.894;2023-06-26T04:08:39;5.70;;;2.25;;
78443;SDS011;67739;52.986;8.894;2023-06-26T04:11:04;6.10;;;2.50;;
78443;SDS011;67739;52.986;8.894;2023-06-26T04:13:29;6.35;;;2.72;;
78443;SDS011;67739;52.986;8.894;2023-06-26T04:15:54;7.05;;;2.65;;
78443;SDS011;67739;52.986;8.894;2023-06-26T04:18:20;4.43;;;1.70;;
78443;SDS011;67739;52.986;8.894;2023-06-26T04:21:03;5.75;;;2.42;;
78443;SDS011;67739;52.986;8.894;2023-06-26T04:23:39;6.00;;;2.30;;
78443;SDS011;67739;52.986;8.894;2023-06-26T04:26:05;7.30;;;2.92;;
78443;SDS011;67739;52.986;8.894;2023-06-26T04:28:34;6.18;;;2.55;;
78443;SDS011;67739;52.986;8.894;2023-06-26T04:31:01;5.25;;;2.08;;
78443;SDS011;67739;52.986;8.894;2023-06-26T04:33:28;6.03;;;2.45;;
78443;SDS011;67739;52.986;8.894;2023-06-26T04:35:54;6.95;;;2.17;;
78443;SDS011;67739;52.986;8.894;2023-06-26T04:38:19;6.18;;;1.92;;
78443;SDS011;67739;52.986;8.894;2023-06-26T04:40:46;5.72;;;2.53;;
78443;SDS011;67739;52.986;8.894;2023-06-26T04:43:12;5.55;;;2.35;;
78443;SDS011;67739;52.986;8.894;2023-06-26T04:45:37;6.40;;;2.63;;
78443;SDS011;67739;52.986;8.894;2023-06-26T04:48:03;5.40;;;2.58;;
78443;SDS011;67739;52.986;8.894;2023-06-26T04:50:29;7.07;;;2.80;;
78443;SDS011;67739;52.986;8.894;2023-06-26T04:52:55;5.70;;;2.53;;
78443;SDS011;67739;52.986;8.894;2023-06-26T04:55:21;4.90;;;2.40;;
78443;SDS011;67739;52.986;8.894;2023-06-26T04:57:46;5.35;;;1.95;;
78443;SDS011;67739;52.986;8.894;2023-06-26T05:00:12;5.35;;;2.42;;
78443;SDS011;67739;52.986;8.894;2023-06-26T05:02:38;4.78;;;1.98;;
78443;SDS011;67739;52.986;8.894;2023-06-26T05:05:03;5.30;;;2.33;;
78443;SDS011;67739;52.986;8.894;2023-06-26T05:07:29;6.63;;;2.92;;
78443;SDS011;67739;52.986;8.894;2023-06-26T05:09:54;8.70;;;2.90;;
78443;SDS011;67739;52.986;8.894;2023-06-26T05:12:20;6.25;;;2.80;;
78443;SDS011;67739;52.986;8.894;2023-06-26T05:14:45;5.65;;;2.60;;
78443;SDS011;67739;52.986;8.894;2023-06-26T05:17:11;5.82;;;2.35;;
78443;SDS011;67739;52.986;8.894;2023-06-26T05:19:38;5.85;;;2.78;;
78443;SDS011;67739;52.986;8.894;2023-06-26T05:22:04;7.32;;;2.40;;
78443;SDS011;67739;52.986;8.894;2023-06-26T05:24:32;6.22;;;2.40;;
78443;SDS011;67739;52.986;8.894;2023-06-26T05:27:00;6.80;;;2.67;;
78443;SDS011;67739;52.986;8.894;2023-06-26T05:29:26;6.38;;;2.40;;
78443;SDS011;67739;52.986;8.894;2023-06-26T05:31:51;6.25;;;2.47;;
78443;SDS011;67739;52.986;8.894;2023-06-26T05:34:21;5.88;;;2.13;;
78443;SDS011;67739;52.986;8.894;2023-06-26T05:36:48;5.75;;;2.33;;
78443;SDS011;67739;52.986;8.894;2023-06-26T05:39:16;5.72;;;1.92;;
78443;SDS011;67739;52.986;8.894;2023-06-26T05:41:43;7.97;;;2.95;;
78443;SDS011;67739;52.986;8.894;2023-06-26T05:44:09;6.90;;;2.22;;
78443;SDS011;67739;52.986;8.894;2023-06-26T05:46:34;5.32;;;2.25;;
78443;SDS011;67739;52.986;8.894;2023-06-26T05:49:00;7.05;;;3.33;;
78443;SDS011;67739;52.986;8.894;2023-06-26T05:51:26;5.82;;;2.20;;
78443;SDS011;67739;52.986;8.894;2023-06-26T05:53:52;5.05;;;1.88;;
78443;SDS011;67739;52.986;8.894;2023-06-26T05:56:17;5.70;;;1.98;;
78443;SDS011;67739;52.986;8.894;2023-06-26T05:58:43;6.25;;;2.35;;
78443;SDS011;67739;52.986;8.894;2023-06-26T06:01:09;6.03;;;2.13;;
78443;SDS011;67739;52.986;8.894;2023-06-26T06:03:34;6.90;;;2.58;;
78443;SDS011;67739;52.986;8.894;2023-06-26T06:06:00;5.22;;;2.22;;
78443;SDS011;67739;52.986;8.894;2023-06-26T06:08:25;7.63;;;2.90;;
78443;SDS011;67739;52.986;8.894;2023-06-26T06:10:50;4.55;;;1.65;;
78443;SDS011;67739;52.986;8.894;2023-06-26T06:13:16;6.50;;;2.40;;
78443;SDS011;67739;52.986;8.894;2023-06-26T06:15:41;5.10;;;1.70;;
78443;SDS011;67739;52.986;8.894;2023-06-26T06:18:06;5.63;;;2.22;;
78443;SDS011;67739;52.986;8.894;2023-06-26T06:20:32;6.45;;;2.20;;
78443;SDS011;67739;52.986;8.894;2023-06-26T06:22:57;7.05;;;2.92;;
78443;SDS011;67739;52.986;8.894;2023-06-26T06:25:22;6.78;;;3.05;;
78443;SDS011;67739;52.986;8.894;2023-06-26T06:27:48;8.10;;;2.25;;
78443;SDS011;67739;52.986;8.894;2023-06-26T06:30:13;5.35;;;2.05;;
78443;SDS011;67739;52.986;8.894;2023-06-26T06:32:38;5.32;;;2.00;;
78443;SDS011;67739;52.986;8.894;2023-06-26T06:35:04;7.85;;;2.53;;
78443;SDS011;67739;52.986;8.894;2023-06-26T06:37:34;6.20;;;2.28;;
78443;SDS011;67739;52.986;8.894;2023-06-26T06:40:00;6.55;;;3.40;;
78443;SDS011;67739;52.986;8.894;2023-06-26T06:42:25;7.25;;;2.70;;
78443;SDS011;67739;52.986;8.894;2023-06-26T06:44:51;4.80;;;2.08;;
78443;SDS011;67739;52.986;8.894;2023-06-26T06:47:16;6.18;;;2.33;;
78443;SDS011;67739;52.986;8.894;2023-06-26T06:49:41;6.35;;;2.25;;
78443;SDS011;67739;52.986;8.894;2023-06-26T06:52:07;6.13;;;2.35;;
78443;SDS011;67739;52.986;8.894;2023-06-26T06:54:32;6.70;;;2.35;;
78443;SDS011;67739;52.986;8.894;2023-06-26T06:57:16;6.28;;;2.88;;
78443;SDS011;67739;52.986;8.894;2023-06-26T06:59:41;6.20;;;2.70;;
78443;SDS011;67739;52.986;8.894;2023-06-26T07:02:07;7.18;;;2.10;;
78443;SDS011;67739;52.986;8.894;2023-06-26T07:04:32;5.63;;;1.73;;
78443;SDS011;67739;52.986;8.894;2023-06-26T07:06:57;5.90;;;2.28;;
78443;SDS011;67739;52.986;8.894;2023-06-26T07:09:23;5.45;;;2.20;;
78443;SDS011;67739;52.986;8.894;2023-06-26T07:11:48;6.88;;;2.08;;
78443;SDS011;67739;52.986;8.894;2023-06-26T07:14:13;5.88;;;2.13;;
78443;SDS011;67739;52.986;8.894;2023-06-26T07:16:39;6.80;;;2.75;;
78443;SDS011;67739;52.986;8.894;2023-06-26T07:19:04;7.45;;;2.42;;
78443;SDS011;67739;52.986;8.894;2023-06-26T07:21:29;7.93;;;2.88;;
78443;SDS011;67739;52.986;8.894;2023-06-26T07:23:54;6.85;;;2.70;;
78443;SDS011;67739;52.986;8.894;2023-06-26T07:26:20;5.90;;;2.13;;
78443;SDS011;67739;52.986;8.894;2023-06-26T07:28:47;6.15;;;2.40;;
78443;SDS011;67739;52.986;8.894;2023-06-26T07:31:13;8.65;;;3.35;;
78443;SDS011;67739;52.986;8.894;2023-06-26T07:33:39;6.32;;;2.55;;
78443;SDS011;67739;52.986;8.894;2023-06-26T07:36:05;7.38;;;3.08;;
78443;SDS011;67739;52.986;8.894;2023-06-26T07:38:30;9.05;;;3.38;;
78443;SDS011;67739;52.986;8.894;2023-06-26T07:40:56;7.63;;;3.08;;
78443;SDS011;67739;52.986;8.894;2023-06-26T07:43:21;6.20;;;2.70;;
78443;SDS011;67739;52.986;8.894;2023-06-26T07:45:48;7.88;;;2.40;;
78443;SDS011;67739;52.986;8.894;2023-06-26T07:48:13;6.90;;;2.83;;
78443;SDS011;67739;52.986;8.894;2023-06-26T07:50:38;7.30;;;3.03;;
78443;SDS011;67739;52.986;8.894;2023-06-26T07:53:04;8.23;;;3.20;;
78443;SDS011;67739;52.986;8.894;2023-06-26T07:55:30;5.95;;;2.17;;
78443;SDS011;67739;52.986;8.894;2023-06-26T07:57:56;9.23;;;3.67;;
78443;SDS011;67739;52.986;8.894;2023-06-26T08:00:22;9.48;;;3.67;;
78443;SDS011;67739;52.986;8.894;2023-06-26T08:02:48;5.90;;;2.72;;
78443;SDS011;67739;52.986;8.894;2023-06-26T08:05:13;7.35;;;3.30;;
78443;SDS011;67739;52.986;8.894;2023-06-26T08:07:38;7.88;;;3.28;;
78443;SDS011;67739;52.986;8.894;2023-06-26T08:10:04;6.75;;;3.00;;
78443;SDS011;67739;52.986;8.894;2023-06-26T08:12:30;7.82;;;3.08;;
78443;SDS011;67739;52.986;8.894;2023-06-26T08:14:55;8.27;;;2.92;;
78443;SDS011;67739;52.986;8.894;2023-06-26T08:17:21;8.23;;;3.67;;
78443;SDS011;67739;52.986;8.894;2023-06-26T08:19:46;7.50;;;2.63;;
78443;SDS011;67739;52.986;8.894;2023-06-26T08:22:12;7.90;;;2.75;;
78443;SDS011;67739;52.986;8.894;2023-06-26T08:24:37;7.90;;;3.28;;
78443;SDS011;67739;52.986;8.894;2023-06-26T08:27:02;7.50;;;2.83;;
78443;SDS011;67739;52.986;8.894;2023-06-26T08:29:28;7.15;;;3.10;;
78443;SDS011;67739;52.986;8.894;2023-06-26T08:31:54;6.68;;;2.95;;
78443;SDS011;67739;52.986;8.894;2023-06-26T08:34:19;8.13;;;3.78;;
78443;SDS011;67739;52.986;8.894;2023-06-26T08:36:45;7.78;;;3.22;;
78443;SDS011;67739;52.986;8.894;2023-06-26T08:39:10;8.63;;;3.63;;
78443;SDS011;67739;52.986;8.894;2023-06-26T08:41:36;8.52;;;3.05;;
78443;SDS011;67739;52.986;8.894;2023-06-26T08:44:02;8.55;;;3.67;;
78443;SDS011;67739;52.986;8.894;2023-06-26T08:46:28;7.18;;;2.78;;
78443;SDS011;67739;52.986;8.894;2023-06-26T08:48:59;7.88;;;3.05;;
78443;SDS011;67739;52.986;8.894;2023-06-26T08:51:27;6.72;;;2.28;;
78443;SDS011;67739;52.986;8.894;2023-06-26T08:53:57;5.97;;;2.42;;
78443;SDS011;67739;52.986;8.894;2023-06-26T08:56:25;5.57;;;1.83;;
78443;SDS011;67739;52.986;8.894;2023-06-26T08:58:56;6.53;;;2.08;;
78443;SDS011;67739;52.986;8.894;2023-06-26T09:01:22;5.35;;;1.85;;
78443;SDS011;67739;52.986;8.894;2023-06-26T09:03:49;5.95;;;1.80;;
78443;SDS011;67739;52.986;8.894;2023-06-26T09:06:14;5.93;;;1.88;;
78443;SDS011;67739;52.986;8.894;2023-06-26T09:08:40;4.65;;;1.38;;
78443;SDS011;67739;52.986;8.894;2023-06-26T09:11:05;5.28;;;1.98;;
78443;SDS011;67739;52.986;8.894;2023-06-26T09:13:31;4.57;;;1.42;;
78443;SDS011;67739;52.986;8.894;2023-06-26T09:15:57;4.20;;;1.35;;
78443;SDS011;67739;52.986;8.894;2023-06-26T09:18:22;4.70;;;1.27;;
78443;SDS011;67739;52.986;8.894;2023-06-26T09:20:48;4.45;;;1.38;;
78443;SDS011;67739;52.986;8.894;2023-06-26T09:23:14;5.38;;;1.60;;
78443;SDS011;67739;52.986;8.894;2023-06-26T09:25:40;5.68;;;2.08;;
78443;SDS011;67739;52.986;8.894;2023-06-26T09:28:06;6.20;;;2.15;;
78443;SDS011;67739;52.986;8.894;2023-06-26T09:30:33;5.18;;;1.92;;
78443;SDS011;67739;52.986;8.894;2023-06-26T09:33:41;5.28;;;1.55;;
78443;SDS011;67739;52.986;8.894;2023-06-26T09:35:47;6.15;;;1.63;;
78443;SDS011;67739;52.986;8.894;2023-06-26T09:38:13;5.78;;;2.00;;
78443;SDS011;67739;52.986;8.894;2023-06-26T09:40:39;8.25;;;2.25;;
78443;SDS011;67739;52.986;8.894;2023-06-26T09:43:05;6.15;;;2.25;;
78443;SDS011;67739;52.986;8.894;2023-06-26T09:45:32;5.95;;;1.73;;
78443;SDS011;67739;52.986;8.894;2023-06-26T09:48:03;6.97;;;2.60;;
78443;SDS011;67739;52.986;8.894;2023-06-26T09:50:30;6.78;;;2.28;;
78443;SDS011;67739;52.986;8.894;2023-06-26T09:52:59;5.30;;;2.00;;
78443;SDS011;67739;52.986;8.894;2023-06-26T09:55:34;7.28;;;2.28;;
78443;SDS011;67739;52.986;8.894;2023-06-26T09:58:01;5.97;;;1.73;;
78443;SDS011;67739;52.986;8.894;2023-06-26T10:00:27;5.80;;;1.70;;
78443;SDS011;67739;52.986;8.894;2023-06-26T10:02:52;5.68;;;1.63;;
78443;SDS011;67739;52.986;8.894;2023-06-26T10:05:18;4.55;;;1.25;;
78443;SDS011;67739;52.986;8.894;2023-06-26T10:07:44;4.88;;;1.60;;
78443;SDS011;67739;52.986;8.894;2023-06-26T10:10:10;7.57;;;1.67;;
78443;SDS011;67739;52.986;8.894;2023-06-26T10:12:37;4.38;;;1.15;;
78443;SDS011;67739;52.986;8.894;2023-06-26T10:15:02;4.43;;;1.50;;
78443;SDS011;67739;52.986;8.894;2023-06-26T10:17:30;4.18;;;1.63;;
78443;SDS011;67739;52.986;8.894;2023-06-26T10:19:59;4.00;;;0.82;;
78443;SDS011;67739;52.986;8.894;2023-06-26T10:22:29;4.97;;;0.90;;
78443;SDS011;67739;52.986;8.894;2023-06-26T10:24:57;3.78;;;1.05;;
78443;SDS011;67739;52.986;8.894;2023-06-26T10:27:25;3.28;;;0.50;;
78443;SDS011;67739;52.986;8.894;2023-06-26T10:32:22;2.70;;;0.40;;
78443;SDS011;67739;52.986;8.894;2023-06-26T10:34:50;2.08;;;0.60;;
78443;SDS011;67739;52.986;8.894;2023-06-26T10:37:16;3.13;;;0.73;;
78443;SDS011;67739;52.986;8.894;2023-06-26T10:39:45;2.08;;;0.30;;
78443;SDS011;67739;52.986;8.894;2023-06-26T10:42:12;3.10;;;0.60;;
78443;SDS011;67739;52.986;8.894;2023-06-26T10:44:42;2.17;;;0.38;;
78443;SDS011;67739;52.986;8.894;2023-06-26T10:47:08;1.73;;;0.30;;
78443;SDS011;67739;52.986;8.894;2023-06-26T10:49:35;2.05;;;0.40;;
78443;SDS011;67739;52.986;8.894;2023-06-26T10:52:01;3.70;;;0.63;;
78443;SDS011;67739;52.986;8.894;2023-06-26T10:54:31;1.95;;;0.40;;
78443;SDS011;67739;52.986;8.894;2023-06-26T10:56:58;1.38;;;0.28;;
78443;SDS011;67739;52.986;8.894;2023-06-26T10:59:26;1.60;;;0.30;;
78443;SDS011;67739;52.986;8.894;2023-06-26T11:04:35;1.45;;;0.20;;
78443;SDS011;67739;52.986;8.894;2023-06-26T11:07:24;1.55;;;0.40;;
78443;SDS011;67739;52.986;8.894;2023-06-26T11:10:07;1.80;;;0.22;;
78443;SDS011;67739;52.986;8.894;2023-06-26T11:15:10;3.40;;;0.40;;
78443;SDS011;67739;52.986;8.894;2023-06-26T11:17:37;0.70;;;0.15;;
78443;SDS011;67739;52.986;8.894;2023-06-26T11:20:05;2.40;;;0.50;;
78443;SDS011;67739;52.986;8.894;2023-06-26T11:22:32;2.15;;;0.30;;
78443;SDS011;67739;52.986;8.894;2023-06-26T11:25:01;1.67;;;0.20;;
78443;SDS011;67739;52.986;8.894;2023-06-26T11:27:31;2.00;;;0.30;;
78443;SDS011;67739;52.986;8.894;2023-06-26T11:29:57;2.10;;;0.40;;
78443;SDS011;67739;52.986;8.894;2023-06-26T11:32:23;2.67;;;0.30;;
78443;SDS011;67739;52.986;8.894;2023-06-26T11:34:51;1.42;;;0.30;;
78443;SDS011;67739;52.986;8.894;2023-06-26T11:37:17;1.20;;;0.20;;
78443;SDS011;67739;52.986;8.894;2023-06-26T11:39:43;1.52;;;0.20;;
78443;SDS011;67739;52.986;8.894;2023-06-26T11:42:08;1.83;;;0.20;;
78443;SDS011;67739;52.986;8.894;2023-06-26T11:44:45;1.33;;;0.20;;
78443;SDS011;67739;52.986;8.894;2023-06-26T11:47:17;1.02;;;0.15;;
78443;SDS011;67739;52.986;8.894;2023-06-26T11:49:44;1.52;;;0.20;;
78443;SDS011;67739;52.986;8.894;2023-06-26T11:52:10;1.35;;;0.20;;
78443;SDS011;67739;52.986;8.894;2023-06-26T11:54:35;0.77;;;0.10;;
78443;SDS011;67739;52.986;8.894;2023-06-26T11:57:01;1.33;;;0.38;;
78443;SDS011;67739;52.986;8.894;2023-06-26T11:59:33;1.45;;;0.20;;
78443;SDS011;67739;52.986;8.894;2023-06-26T12:02:00;0.40;;;0.10;;
78443;SDS011;67739;52.986;8.894;2023-06-26T12:04:30;2.40;;;0.17;;
78443;SDS011;67739;52.986;8.894;2023-06-26T12:06:55;0.77;;;0.10;;
78443;SDS011;67739;52.986;8.894;2023-06-26T12:09:25;1.13;;;0.20;;
78443;SDS011;67739;52.986;8.894;2023-06-26T12:11:54;1.60;;;0.20;;
78443;SDS011;67739;52.986;8.894;2023-06-26T12:14:22;1.67;;;0.17;;
78443;SDS011;67739;52.986;8.894;2023-06-26T12:16:50;0.80;;;0.10;;
78443;SDS011;67739;52.986;8.894;2023-06-26T12:19:15;0.80;;;0.17;;
78443;SDS011;67739;52.986;8.894;2023-06-26T12:24:07;0.88;;;0.20;;
78443;SDS011;67739;52.986;8.894;2023-06-26T12:26:34;1.52;;;0.25;;
78443;SDS011;67739;52.986;8.894;2023-06-26T12:29:05;0.98;;;0.20;;
78443;SDS011;67739;52.986;8.894;2023-06-26T12:31:32;1.30;;;0.30;;
78443;SDS011;67739;52.986;8.894;2023-06-26T12:33:58;1.85;;;0.10;;
78443;SDS011;67739;52.986;8.894;2023-06-26T12:36:25;1.85;;;0.30;;
78443;SDS011;67739;52.986;8.894;2023-06-26T12:38:52;2.22;;;0.40;;
78443;SDS011;67739;52.986;8.894;2023-06-26T12:41:18;1.48;;;0.20;;
78443;SDS011;67739;52.986;8.894;2023-06-26T12:43:45;1.08;;;0.20;;
78443;SDS011;67739;52.986;8.894;2023-06-26T12:46:11;1.83;;;0.20;;
78443;SDS011;67739;52.986;8.894;2023-06-26T12:48:41;1.17;;;0.20;;
78443;SDS011;67739;52.986;8.894;2023-06-26T12:51:15;1.38;;;0.20;;
78443;SDS011;67739;52.986;8.894;2023-06-26T12:53:42;2.53;;;0.20;;
78443;SDS011;67739;52.986;8.894;2023-06-26T12:56:08;1.80;;;0.13;;
78443;SDS011;67739;52.986;8.894;2023-06-26T12:58:35;1.45;;;0.30;;
78443;SDS011;67739;52.986;8.894;2023-06-26T13:01:02;1.20;;;0.10;;
78443;SDS011;67739;52.986;8.894;2023-06-26T13:03:39;0.82;;;0.17;;
78443;SDS011;67739;52.986;8.894;2023-06-26T13:06:05;1.45;;;0.30;;
78443;SDS011;67739;52.986;8.894;2023-06-26T13:08:31;2.33;;;0.30;;
78443;SDS011;67739;52.986;8.894;2023-06-26T13:10:58;2.55;;;0.22;;
78443;SDS011;67739;52.986;8.894;2023-06-26T13:13:24;1.27;;;0.22;;
78443;SDS011;67739;52.986;8.894;2023-06-26T13:15:49;1.98;;;0.10;;
78443;SDS011;67739;52.986;8.894;2023-06-26T13:18:14;0.80;;;0.17;;
78443;SDS011;67739;52.986;8.894;2023-06-26T13:20:40;2.55;;;0.32;;
78443;SDS011;67739;52.986;8.894;2023-06-26T13:23:05;1.35;;;0.30;;
78443;SDS011;67739;52.986;8.894;2023-06-26T13:25:31;1.40;;;0.20;;
78443;SDS011;67739;52.986;8.894;2023-06-26T13:27:56;1.50;;;0.30;;
78443;SDS011;67739;52.986;8.894;2023-06-26T13:30:21;1.90;;;0.30;;
78443;SDS011;67739;52.986;8.894;2023-06-26T13:32:47;1.25;;;0.17;;
78443;SDS011;67739;52.986;8.894;2023-06-26T13:35:12;1.70;;;0.20;;
78443;SDS011;67739;52.986;8.894;2023-06-26T13:37:39;1.45;;;0.20;;
78443;SDS011;67739;52.986;8.894;2023-06-26T13:40:05;1.25;;;0.22;;
78443;SDS011;67739;52.986;8.894;2023-06-26T13:42:32;1.90;;;0.20;;
78443;SDS011;67739;52.986;8.894;2023-06-26T13:44:57;1.35;;;0.28;;
78443;SDS011;67739;52.986;8.894;2023-06-26T13:47:22;1.38;;;0.30;;
78443;SDS011;67739;52.986;8.894;2023-06-26T13:49:48;1.45;;;0.13;;
78443;SDS011;67739;52.986;8.894;2023-06-26T13:52:13;1.13;;;0.20;;
78443;SDS011;67739;52.986;8.894;2023-06-26T13:54:39;2.50;;;0.30;;
78443;SDS011;67739;52.986;8.894;2023-06-26T13:57:05;1.98;;;0.25;;
78443;SDS011;67739;52.986;8.894;2023-06-26T13:59:32;2.03;;;0.30;;
78443;SDS011;67739;52.986;8.894;2023-06-26T14:01:57;1.73;;;0.20;;
78443;SDS011;67739;52.986;8.894;2023-06-26T14:04:24;1.80;;;0.20;;
78443;SDS011;67739;52.986;8.894;2023-06-26T14:06:49;1.52;;;0.20;;
78443;SDS011;67739;52.986;8.894;2023-06-26T14:09:15;1.42;;;0.20;;
78443;SDS011;67739;52.986;8.894;2023-06-26T14:11:40;1.40;;;0.30;;
78443;SDS011;67739;52.986;8.894;2023-06-26T14:14:05;1.40;;;0.28;;
78443;SDS011;67739;52.986;8.894;2023-06-26T14:16:31;2.47;;;0.50;;
78443;SDS011;67739;52.986;8.894;2023-06-26T14:18:57;1.98;;;0.38;;
78443;SDS011;67739;52.986;8.894;2023-06-26T14:21:22;0.85;;;0.17;;
78443;SDS011;67739;52.986;8.894;2023-06-26T14:23:48;1.05;;;0.63;;
78443;SDS011;67739;52.986;8.894;2023-06-26T14:26:13;1.63;;;0.28;;
78443;SDS011;67739;52.986;8.894;2023-06-26T14:28:39;1.20;;;0.28;;
78443;SDS011;67739;52.986;8.894;2023-06-26T14:31:05;1.90;;;0.38;;
78443;SDS011;67739;52.986;8.894;2023-06-26T14:33:30;1.90;;;0.40;;
78443;SDS011;67739;52.986;8.894;2023-06-26T14:35:55;1.67;;;0.40;;
78443;SDS011;67739;52.986;8.894;2023-06-26T14:38:21;2.60;;;0.47;;
78443;SDS011;67739;52.986;8.894;2023-06-26T14:40:46;1.13;;;0.15;;
78443;SDS011;67739;52.986;8.894;2023-06-26T14:43:12;2.53;;;0.60;;
78443;SDS011;67739;52.986;8.894;2023-06-26T14:45:37;1.23;;;0.20;;
78443;SDS011;67739;52.986;8.894;2023-06-26T14:48:02;0.68;;;0.15;;
78443;SDS011;67739;52.986;8.894;2023-06-26T14:50:28;1.58;;;0.30;;
78443;SDS011;67739;52.986;8.894;2023-06-26T14:52:53;1.50;;;0.15;;
78443;SDS011;67739;52.986;8.894;2023-06-26T14:55:18;1.30;;;0.20;;
78443;SDS011;67739;52.986;8.894;2023-06-26T14:57:44;1.73;;;0.28;;